createdAt,value
2023-05-12T00:00:50.768Z,1.85
2023-05-12T00:03:17.198Z,1.85
2023-05-12T00:05:43.579Z,1.82
2023-05-12T00:08:09.879Z,1.93
2023-05-12T00:10:36.184Z,1.88
2023-05-12T00:13:02.605Z,1.82
2023-05-12T00:15:28.977Z,1.92
2023-05-12T00:17:55.366Z,1.83
2023-05-12T00:20:22.233Z,1.86
2023-05-12T00:22:48.780Z,1.76
2023-05-12T00:25:15.091Z,1.77
2023-05-12T00:27:41.427Z,1.74
2023-05-12T00:30:07.726Z,1.87
2023-05-12T00:32:34.132Z,1.71
2023-05-12T00:35:00.516Z,1.59
2023-05-12T00:37:26.877Z,1.75
2023-05-12T00:39:53.211Z,1.71
2023-05-12T00:42:19.566Z,1.59
2023-05-12T00:44:45.886Z,1.45
2023-05-12T00:47:12.223Z,1.47
2023-05-12T00:49:38.601Z,1.53
2023-05-12T00:52:04.963Z,1.67
2023-05-12T00:54:31.347Z,1.57
2023-05-12T00:56:57.743Z,1.56
2023-05-12T00:59:24.065Z,1.37
2023-05-12T01:01:50.423Z,1.51
2023-05-12T01:04:16.742Z,1.65
2023-05-12T01:06:43.081Z,1.36
2023-05-12T01:09:09.401Z,1.46
2023-05-12T01:11:35.696Z,1.40
2023-05-12T01:14:02.098Z,1.50
2023-05-12T01:16:28.454Z,1.67
2023-05-12T01:18:54.826Z,1.46
2023-05-12T01:21:21.205Z,1.37
2023-05-12T01:23:47.575Z,1.52
2023-05-12T01:26:13.915Z,1.48
2023-05-12T01:28:40.213Z,1.34
2023-05-12T01:31:06.585Z,1.49
2023-05-12T01:33:33.001Z,1.37
2023-05-12T01:35:59.379Z,1.42
2023-05-12T01:38:25.708Z,1.37
2023-05-12T01:40:52.243Z,1.38
2023-05-12T01:43:19.759Z,1.36
2023-05-12T01:45:47.131Z,1.30
2023-05-12T01:48:13.454Z,1.34
2023-05-12T01:50:39.770Z,1.37
2023-05-12T01:53:06.112Z,1.41
2023-05-12T01:55:32.416Z,1.34
2023-05-12T01:57:58.723Z,1.23
2023-05-12T02:00:25.086Z,1.38
2023-05-12T02:02:51.473Z,1.37
2023-05-12T02:05:17.801Z,1.35
2023-05-12T02:07:44.115Z,1.23
2023-05-12T02:10:10.524Z,1.40
2023-05-12T02:12:36.882Z,1.35
2023-05-12T02:15:03.208Z,1.32
2023-05-12T02:17:29.538Z,1.21
2023-05-12T02:19:55.873Z,1.55
2023-05-12T02:22:22.211Z,1.35
2023-05-12T02:24:48.539Z,1.47
2023-05-12T02:27:14.876Z,1.38
2023-05-12T02:29:41.181Z,1.52
2023-05-12T02:32:07.540Z,1.43
2023-05-12T02:34:34.016Z,1.32
2023-05-12T02:37:00.361Z,1.38
2023-05-12T02:39:26.659Z,1.28
2023-05-12T02:41:52.981Z,1.52
2023-05-12T02:44:19.291Z,1.45
2023-05-12T02:46:45.640Z,1.35
2023-05-12T02:49:11.989Z,1.28
2023-05-12T02:51:38.302Z,1.29
2023-05-12T02:54:04.651Z,1.29
2023-05-12T02:56:33.264Z,1.27
2023-05-12T02:59:00.278Z,1.51
2023-05-12T03:01:26.679Z,1.24
2023-05-12T03:03:53.111Z,1.23
2023-05-12T03:06:19.474Z,1.19
2023-05-12T03:08:45.840Z,1.26
2023-05-12T03:11:12.206Z,1.26
2023-05-12T03:13:38.504Z,1.27
2023-05-12T03:16:04.827Z,1.18
2023-05-12T03:18:31.277Z,1.26
2023-05-12T03:20:57.704Z,1.34
2023-05-12T03:23:24.047Z,1.37
2023-05-12T03:25:50.394Z,1.21
2023-05-12T03:28:16.734Z,1.16
2023-05-12T03:30:43.085Z,1.26
2023-05-12T03:33:09.439Z,1.29
2023-05-12T03:35:35.763Z,1.33
2023-05-12T03:38:02.103Z,1.27
2023-05-12T03:40:28.446Z,1.24
2023-05-12T03:42:54.816Z,1.37
2023-05-12T03:45:21.129Z,1.42
2023-05-12T03:47:47.623Z,1.43
2023-05-12T03:50:14.032Z,1.27
2023-05-12T03:52:40.398Z,1.37
2023-05-12T03:55:06.799Z,1.33
2023-05-12T03:57:33.162Z,1.38
2023-05-12T03:59:59.466Z,1.36
2023-05-12T04:02:25.910Z,1.28
2023-05-12T04:04:52.337Z,1.40
2023-05-12T04:07:18.669Z,1.17
2023-05-12T04:09:45.017Z,1.14
2023-05-12T04:12:11.405Z,1.34
2023-05-12T04:14:42.834Z,1.28
2023-05-12T04:17:09.878Z,1.33
2023-05-12T04:19:36.259Z,1.19
2023-05-12T04:22:02.586Z,1.22
2023-05-12T04:24:28.936Z,1.15
2023-05-12T04:26:55.278Z,1.10
2023-05-12T04:29:21.587Z,1.28
2023-05-12T04:31:47.931Z,1.26
2023-05-12T04:34:14.281Z,1.42
2023-05-12T04:36:40.599Z,1.25
2023-05-12T04:39:06.945Z,1.37
2023-05-12T04:41:33.311Z,1.22
2023-05-12T04:44:00.312Z,1.51
2023-05-12T04:46:26.995Z,1.17
2023-05-12T04:48:53.440Z,1.50
2023-05-12T04:51:19.761Z,1.27
2023-05-12T04:53:46.122Z,1.34
2023-05-12T04:56:12.450Z,1.08
2023-05-12T04:58:38.757Z,1.42
2023-05-12T05:01:05.146Z,1.36
2023-05-12T05:03:31.639Z,1.39
2023-05-12T05:05:58.172Z,1.21
2023-05-12T05:08:24.508Z,1.37
2023-05-12T05:10:50.812Z,1.33
2023-05-12T05:13:17.160Z,1.32
2023-05-12T05:15:43.584Z,1.34
2023-05-12T05:18:10.003Z,1.32
2023-05-12T05:20:40.656Z,1.37
2023-05-12T05:23:09.478Z,1.24
2023-05-12T05:25:35.966Z,1.37
2023-05-12T05:28:02.339Z,1.30
2023-05-12T05:30:28.719Z,1.21
2023-05-12T05:32:55.111Z,1.40
2023-05-12T05:35:21.718Z,1.43
2023-05-12T05:37:48.306Z,1.28
2023-05-12T05:40:14.651Z,1.24
2023-05-12T05:42:41.178Z,1.11
2023-05-12T05:45:07.559Z,1.27
2023-05-12T05:47:33.900Z,1.29
2023-05-12T05:50:00.268Z,1.29
2023-05-12T05:52:26.634Z,1.37
2023-05-12T05:54:52.998Z,1.47
2023-05-12T05:57:19.319Z,1.30
2023-05-12T05:59:45.622Z,1.33
2023-05-12T06:02:11.946Z,1.49
2023-05-12T06:04:38.311Z,1.25
2023-05-12T06:07:04.617Z,1.30
2023-05-12T06:09:30.967Z,1.46
2023-05-12T06:11:57.264Z,1.43
2023-05-12T06:14:23.655Z,1.31
2023-05-12T06:16:50.142Z,1.30
2023-05-12T06:19:16.537Z,1.52
2023-05-12T06:21:42.848Z,1.52
2023-05-12T06:24:09.150Z,1.55
2023-05-12T06:26:35.463Z,1.53
2023-05-12T06:29:01.768Z,1.63
2023-05-12T06:31:28.144Z,1.63
2023-05-12T06:33:54.551Z,1.56
2023-05-12T06:36:20.914Z,1.65
2023-05-12T06:38:47.421Z,1.64
2023-05-12T06:41:13.722Z,1.68
2023-05-12T06:43:40.089Z,1.76
2023-05-12T06:46:06.486Z,1.78
2023-05-12T06:48:32.844Z,1.73
2023-05-12T06:50:59.195Z,1.93
2023-05-12T06:53:25.809Z,1.77
2023-05-12T06:55:52.157Z,1.76
2023-05-12T06:58:18.519Z,1.81
2023-05-12T07:00:44.856Z,1.88
2023-05-12T07:03:11.261Z,1.97
2023-05-12T07:05:37.791Z,1.71
2023-05-12T07:08:04.168Z,1.73
2023-05-12T07:10:30.527Z,1.74
2023-05-12T07:12:56.872Z,1.73
2023-05-12T07:15:23.620Z,1.73
2023-05-12T07:17:50.266Z,1.88
2023-05-12T07:20:16.620Z,1.78
2023-05-12T07:22:42.923Z,1.80
2023-05-12T07:25:09.275Z,1.60
2023-05-12T07:27:35.628Z,1.76
2023-05-12T07:30:01.960Z,1.67
2023-05-12T07:32:28.300Z,1.86
2023-05-12T07:34:54.634Z,1.77
2023-05-12T07:37:20.994Z,1.64
2023-05-12T07:39:47.349Z,1.63
2023-05-12T07:42:13.704Z,1.58
2023-05-12T07:44:40.060Z,1.64
2023-05-12T07:47:06.439Z,1.74
2023-05-12T07:49:32.789Z,1.77
2023-05-12T07:51:59.113Z,1.75
2023-05-12T07:54:25.419Z,1.83
2023-05-12T07:56:51.838Z,1.75
2023-05-12T07:59:18.158Z,1.58
2023-05-12T08:01:44.601Z,1.67
2023-05-12T08:04:11.394Z,1.62
2023-05-12T08:06:37.834Z,1.67
2023-05-12T08:09:04.191Z,1.84
2023-05-12T08:11:30.525Z,1.84
2023-05-12T08:13:56.831Z,1.66
2023-05-12T08:16:23.244Z,1.64
2023-05-12T08:18:49.668Z,1.57
2023-05-12T08:21:16.111Z,1.58
2023-05-12T08:23:42.405Z,1.63
2023-05-12T08:26:08.782Z,1.68
2023-05-12T08:28:35.088Z,1.78
2023-05-12T08:31:04.095Z,2.01
2023-05-12T08:33:31.214Z,1.75
2023-05-12T08:35:57.514Z,1.87
2023-05-12T08:38:23.811Z,1.82
2023-05-12T08:40:50.186Z,1.96
2023-05-12T08:43:16.495Z,1.86
2023-05-12T08:45:42.789Z,1.85
2023-05-12T08:48:09.150Z,1.70
2023-05-12T08:50:35.592Z,1.77
2023-05-12T08:53:01.910Z,1.84
2023-05-12T08:55:32.760Z,1.72
2023-05-12T08:58:00.256Z,1.85
2023-05-12T09:00:26.609Z,1.78
2023-05-12T09:02:54.818Z,1.94
2023-05-12T09:05:21.720Z,1.93
2023-05-12T09:07:48.296Z,1.90
2023-05-12T09:10:25.982Z,1.87
2023-05-12T09:12:59.685Z,1.85
2023-05-12T09:15:26.088Z,1.82
2023-05-12T09:17:52.420Z,1.91
2023-05-12T09:20:30.463Z,1.93
2023-05-12T09:22:57.979Z,1.95
2023-05-12T09:25:24.348Z,1.75
2023-05-12T09:27:50.709Z,1.86
2023-05-12T09:30:17.047Z,2.06
2023-05-12T09:32:43.450Z,2.23
2023-05-12T09:35:09.803Z,2.14
2023-05-12T09:37:36.159Z,1.97
2023-05-12T09:40:02.493Z,1.90
2023-05-12T09:42:28.851Z,2.02
2023-05-12T09:44:55.201Z,2.12
2023-05-12T09:47:21.612Z,2.19
2023-05-12T09:49:48.015Z,2.33
2023-05-12T09:52:14.323Z,2.27
2023-05-12T09:54:40.632Z,2.21
2023-05-12T09:57:06.930Z,2.00
2023-05-12T09:59:33.330Z,2.19
2023-05-12T10:01:59.988Z,2.04
2023-05-12T10:04:26.339Z,2.25
2023-05-12T10:06:52.701Z,2.09
2023-05-12T10:09:19.004Z,2.13
2023-05-12T10:11:45.374Z,2.17
2023-05-12T10:14:11.746Z,1.98
2023-05-12T10:16:38.089Z,2.08
2023-05-12T10:19:04.543Z,2.08
2023-05-12T10:21:30.969Z,2.02
2023-05-12T10:23:57.321Z,1.82
2023-05-12T10:26:23.687Z,2.02
2023-05-12T10:28:50.056Z,2.08
2023-05-12T10:31:16.462Z,2.03
2023-05-12T10:33:42.828Z,2.12
2023-05-12T10:36:09.157Z,2.01
2023-05-12T10:38:35.455Z,1.94
2023-05-12T10:41:01.753Z,2.31
2023-05-12T10:43:28.149Z,1.89
2023-05-12T10:45:54.540Z,1.84
2023-05-12T10:48:20.908Z,1.97
2023-05-12T10:50:47.300Z,1.86
2023-05-12T10:53:13.616Z,2.08
2023-05-12T10:55:40.116Z,1.97
2023-05-12T10:58:06.924Z,1.91
2023-05-12T11:00:33.877Z,1.89
2023-05-12T11:03:04.267Z,2.00
2023-05-12T11:05:34.834Z,2.01
2023-05-12T11:08:02.483Z,1.83
2023-05-12T11:10:29.263Z,1.84
2023-05-12T11:12:55.796Z,2.09
2023-05-12T11:15:22.347Z,2.07
2023-05-12T11:17:49.113Z,2.06
2023-05-12T11:20:15.580Z,2.14
2023-05-12T11:22:41.931Z,1.92
2023-05-12T11:25:08.346Z,1.91
2023-05-12T11:27:34.676Z,2.03
2023-05-12T11:30:01.158Z,1.88
2023-05-12T11:32:27.682Z,1.83
2023-05-12T11:34:54.118Z,2.00
2023-05-12T11:37:20.472Z,1.89
2023-05-12T11:39:46.786Z,1.97
2023-05-12T11:42:14.076Z,1.89
2023-05-12T11:44:41.517Z,1.93
2023-05-12T11:47:07.817Z,2.09
2023-05-12T11:49:34.184Z,2.04
2023-05-12T11:52:00.488Z,1.82
2023-05-12T11:54:26.841Z,1.95
2023-05-12T11:56:53.166Z,1.92
2023-05-12T11:59:19.683Z,1.89
2023-05-12T12:01:46.056Z,2.00
2023-05-12T12:04:12.377Z,1.91
2023-05-12T12:06:38.734Z,1.84
2023-05-12T12:09:05.076Z,1.87
2023-05-12T12:11:31.444Z,1.81
2023-05-12T12:13:57.764Z,1.88
2023-05-12T12:16:24.105Z,1.91
2023-05-12T12:18:50.453Z,1.79
2023-05-12T12:21:18.796Z,1.90
2023-05-12T12:23:51.331Z,1.94
2023-05-12T12:26:18.235Z,2.07
2023-05-12T12:28:44.549Z,2.09
2023-05-12T12:31:10.922Z,2.00
2023-05-12T12:33:37.310Z,1.99
2023-05-12T12:36:03.633Z,2.04
2023-05-12T12:38:30.021Z,1.90
2023-05-12T12:40:56.379Z,2.13
2023-05-12T12:43:22.770Z,2.07
2023-05-12T12:45:49.127Z,2.07
2023-05-12T12:48:15.518Z,2.19
2023-05-12T12:50:41.905Z,2.22
2023-05-12T12:53:08.278Z,2.00
2023-05-12T12:55:34.598Z,2.10
2023-05-12T12:58:00.928Z,1.99
2023-05-12T13:00:27.223Z,2.12
2023-05-12T13:02:53.720Z,2.14
2023-05-12T13:05:20.273Z,2.39
2023-05-12T13:07:46.839Z,2.28
2023-05-12T13:10:13.219Z,2.18
2023-05-12T13:12:39.551Z,2.02
2023-05-12T13:15:05.898Z,2.23
2023-05-12T13:17:32.229Z,2.24
2023-05-12T13:19:58.612Z,2.22
2023-05-12T13:22:24.910Z,2.32
2023-05-12T13:24:51.306Z,2.07
2023-05-12T13:27:17.625Z,2.33
2023-05-12T13:29:43.961Z,2.51
2023-05-12T13:32:10.289Z,2.63
2023-05-12T13:34:36.657Z,2.34
2023-05-12T13:37:02.988Z,2.15
2023-05-12T13:39:29.992Z,2.49
2023-05-12T13:41:56.381Z,2.51
2023-05-12T13:44:22.847Z,2.50
2023-05-12T13:46:49.363Z,2.29
2023-05-12T13:49:15.811Z,2.38
2023-05-12T13:51:42.292Z,2.25
2023-05-12T13:54:08.619Z,2.25
2023-05-12T13:56:34.951Z,2.51
2023-05-12T13:59:01.272Z,2.29
2023-05-12T14:01:27.631Z,2.28
2023-05-12T14:03:54.206Z,2.35
2023-05-12T14:06:20.588Z,2.25
2023-05-12T14:08:46.980Z,2.25
2023-05-12T14:11:13.357Z,2.22
2023-05-12T14:13:39.728Z,2.27
2023-05-12T14:16:06.092Z,2.16
2023-05-12T14:18:32.627Z,2.36
2023-05-12T14:20:59.034Z,2.24
2023-05-12T14:23:25.451Z,2.43
2023-05-12T14:25:51.805Z,2.29
2023-05-12T14:28:19.725Z,2.21
2023-05-12T14:30:46.158Z,2.22
2023-05-12T14:33:12.683Z,2.23
2023-05-12T14:35:39.163Z,2.12
2023-05-12T14:38:05.563Z,2.15
2023-05-12T14:40:31.889Z,2.19
2023-05-12T14:42:58.204Z,2.26
2023-05-12T14:45:24.883Z,2.14
2023-05-12T14:47:51.600Z,2.14
2023-05-12T14:50:18.044Z,2.21
2023-05-12T14:52:44.415Z,2.19
2023-05-12T14:55:10.792Z,2.17
2023-05-12T14:57:37.172Z,2.07
2023-05-12T15:00:03.683Z,2.06
2023-05-12T15:02:30.204Z,1.90
2023-05-12T15:04:56.594Z,1.99
2023-05-12T15:07:22.956Z,2.19
2023-05-12T15:09:49.463Z,2.06
2023-05-12T15:12:16.970Z,1.88
2023-05-12T15:14:44.110Z,1.81
2023-05-12T15:17:10.575Z,1.94
2023-05-12T15:19:37.101Z,2.00
2023-05-12T15:22:03.505Z,1.97
2023-05-12T15:24:29.876Z,1.80
2023-05-12T15:26:56.229Z,1.88
2023-05-12T15:29:22.543Z,1.79
2023-05-12T15:31:49.017Z,1.78
2023-05-12T15:34:15.572Z,2.16
2023-05-12T15:36:41.946Z,2.03
2023-05-12T15:39:08.308Z,2.11
2023-05-12T15:41:34.615Z,2.13
2023-05-12T15:44:00.980Z,1.99
2023-05-12T15:46:27.498Z,2.10
2023-05-12T15:48:53.930Z,1.90
2023-05-12T15:51:20.495Z,2.18
2023-05-12T15:53:46.839Z,2.01
2023-05-12T15:56:13.196Z,2.01
2023-05-12T15:58:39.551Z,2.07
2023-05-12T16:01:05.888Z,2.13
2023-05-12T16:03:32.490Z,1.95
2023-05-12T16:05:58.865Z,1.82
2023-05-12T16:08:25.192Z,1.89
2023-05-12T16:10:51.555Z,1.98
2023-05-12T16:13:17.982Z,1.98
2023-05-12T16:15:44.310Z,1.78
2023-05-12T16:18:11.505Z,2.02
2023-05-12T16:20:38.091Z,1.83
2023-05-12T16:23:04.519Z,1.80
2023-05-12T16:25:30.916Z,1.87
2023-05-12T16:27:57.267Z,1.94
2023-05-12T16:30:23.799Z,1.75
2023-05-12T16:32:50.485Z,1.82
2023-05-12T16:35:17.073Z,1.84
2023-05-12T16:37:43.422Z,1.89
2023-05-12T16:40:09.926Z,1.74
2023-05-12T16:42:36.563Z,1.77
2023-05-12T16:45:03.008Z,1.84
2023-05-12T16:47:29.585Z,1.91
2023-05-12T16:49:56.023Z,1.87
2023-05-12T16:52:22.350Z,1.84
2023-05-12T16:54:48.670Z,1.65
2023-05-12T16:57:15.268Z,1.75
2023-05-12T16:59:41.721Z,1.62
2023-05-12T17:02:08.254Z,1.77
2023-05-12T17:04:34.670Z,1.72
2023-05-12T17:07:01.032Z,1.61
2023-05-12T17:09:27.404Z,1.74
2023-05-12T17:11:53.776Z,1.67
2023-05-12T17:14:20.214Z,1.83
2023-05-12T17:16:46.778Z,1.81
2023-05-12T17:19:14.805Z,1.73
2023-05-12T17:21:41.407Z,1.86
2023-05-12T17:24:07.795Z,1.82
2023-05-12T17:26:34.224Z,2.01
2023-05-12T17:29:00.600Z,1.93
2023-05-12T17:31:26.944Z,1.93
2023-05-12T17:33:53.270Z,1.80
2023-05-12T17:36:19.661Z,1.91
2023-05-12T17:38:45.988Z,1.80
2023-05-12T17:41:12.367Z,1.83
2023-05-12T17:43:38.744Z,1.65
2023-05-12T17:46:05.126Z,1.96
2023-05-12T17:48:31.668Z,1.89
2023-05-12T17:50:57.999Z,1.74
2023-05-12T17:53:24.318Z,1.89
2023-05-12T17:55:50.657Z,1.89
2023-05-12T17:58:17.226Z,1.90
2023-05-12T18:00:43.753Z,1.87
2023-05-12T18:03:10.230Z,1.76
2023-05-12T18:05:36.773Z,1.90
2023-05-12T18:08:03.203Z,1.87
2023-05-12T18:10:29.516Z,1.83
2023-05-12T18:12:55.947Z,1.90
2023-05-12T18:15:22.406Z,1.90
2023-05-12T18:17:48.881Z,1.88
2023-05-12T18:20:15.549Z,1.89
2023-05-12T18:22:41.890Z,1.98
2023-05-12T18:25:08.213Z,1.95
2023-05-12T18:27:34.590Z,1.84
2023-05-12T18:30:00.949Z,1.92
2023-05-12T18:32:27.471Z,1.89
2023-05-12T18:34:53.903Z,2.03
2023-05-12T18:37:20.782Z,2.20
2023-05-12T18:39:47.128Z,2.15
2023-05-12T18:42:13.496Z,2.11
2023-05-12T18:44:39.855Z,2.13
2023-05-12T18:47:06.229Z,2.03
2023-05-12T18:49:32.556Z,2.13
2023-05-12T18:51:58.922Z,2.24
2023-05-12T18:54:25.298Z,2.61
2023-05-12T18:56:51.661Z,2.42
2023-05-12T18:59:18.252Z,2.57
2023-05-12T19:01:44.742Z,2.41
2023-05-12T19:04:11.195Z,2.35
2023-05-12T19:06:37.666Z,2.38
2023-05-12T19:09:04.034Z,2.27
2023-05-12T19:11:30.368Z,2.64
2023-05-12T19:13:56.695Z,2.84
2023-05-12T19:16:23.090Z,2.57
2023-05-12T19:18:49.605Z,2.69
2023-05-12T19:21:16.001Z,2.58
2023-05-12T19:23:42.341Z,3.04
2023-05-12T19:26:08.676Z,2.70
2023-05-12T19:28:35.000Z,2.70
2023-05-12T19:31:01.421Z,2.83
2023-05-12T19:33:27.796Z,2.65
2023-05-12T19:35:54.132Z,2.99
2023-05-12T19:38:20.511Z,2.87
2023-05-12T19:40:47.081Z,2.83
2023-05-12T19:43:13.432Z,2.83
2023-05-12T19:45:40.068Z,2.85
2023-05-12T19:48:06.494Z,2.78
2023-05-12T19:50:33.024Z,2.81
2023-05-12T19:52:59.397Z,2.78
2023-05-12T19:55:25.737Z,2.77
2023-05-12T19:57:52.280Z,2.92
2023-05-12T20:00:18.603Z,2.82
2023-05-12T20:02:45.070Z,2.68
2023-05-12T20:05:11.460Z,3.02
2023-05-12T20:07:37.977Z,2.93
2023-05-12T20:10:04.292Z,2.99
2023-05-12T20:12:30.722Z,3.00
2023-05-12T20:14:57.114Z,2.94
2023-05-12T20:17:23.592Z,2.88
2023-05-12T20:19:49.995Z,2.87
2023-05-12T20:22:16.438Z,2.89
2023-05-12T20:24:42.827Z,2.71
2023-05-12T20:27:09.181Z,2.90
2023-05-12T20:29:35.578Z,2.86
2023-05-12T20:32:01.899Z,2.76
2023-05-12T20:34:28.214Z,2.92
2023-05-12T20:36:54.584Z,2.93
2023-05-12T20:39:21.150Z,2.73
2023-05-12T20:41:47.485Z,2.72
2023-05-12T20:44:13.862Z,2.82
2023-05-12T20:46:40.343Z,2.59
2023-05-12T20:49:06.798Z,2.42
2023-05-12T20:51:33.125Z,2.59
2023-05-12T20:53:59.549Z,2.65
2023-05-12T20:56:25.897Z,2.73
2023-05-12T20:58:52.208Z,2.65
2023-05-12T21:01:18.698Z,2.84
2023-05-12T21:03:45.157Z,2.55
2023-05-12T21:06:11.600Z,2.53
2023-05-12T21:08:37.939Z,2.65
2023-05-12T21:11:04.301Z,2.44
2023-05-12T21:13:30.659Z,2.44
2023-05-12T21:15:56.979Z,2.41
2023-05-12T21:18:23.392Z,2.42
2023-05-12T21:20:49.749Z,2.88
2023-05-12T21:23:16.060Z,2.62
2023-05-12T21:25:42.383Z,2.55
2023-05-12T21:28:08.727Z,2.61
2023-05-12T21:30:35.191Z,2.59
2023-05-12T21:33:01.524Z,2.50
2023-05-12T21:35:27.930Z,2.54
2023-05-12T21:37:54.333Z,2.71
2023-05-12T21:40:20.935Z,2.69
2023-05-12T21:42:47.650Z,2.71
2023-05-12T21:45:14.019Z,2.79
2023-05-12T21:47:40.424Z,2.49
2023-05-12T21:50:06.774Z,2.90
2023-05-12T21:52:33.092Z,2.53
2023-05-12T21:54:59.436Z,2.50
2023-05-12T21:57:25.802Z,2.47
2023-05-12T21:59:52.343Z,2.26
2023-05-12T22:02:18.686Z,2.51
2023-05-12T22:04:45.173Z,2.36
2023-05-12T22:07:11.496Z,2.39
2023-05-12T22:09:37.831Z,2.42
2023-05-12T22:12:04.221Z,2.61
2023-05-12T22:14:30.608Z,2.45
2023-05-12T22:16:57.040Z,2.64
2023-05-12T22:21:49.759Z,2.60
2023-05-12T22:24:16.290Z,2.45
2023-05-12T22:26:42.670Z,2.27
2023-05-12T22:29:09.001Z,2.52
2023-05-12T22:31:35.449Z,2.43
2023-05-12T22:34:01.849Z,2.23
2023-05-12T22:36:28.188Z,2.48
2023-05-12T22:38:54.529Z,2.27
2023-05-12T22:41:20.845Z,2.27
2023-05-12T22:43:47.160Z,2.21
2023-05-12T22:46:13.491Z,2.11
2023-05-12T22:48:39.927Z,2.25
2023-05-12T22:51:06.289Z,2.31
2023-05-12T22:53:32.644Z,2.25
2023-05-12T22:55:59.045Z,2.02
2023-05-12T22:58:25.410Z,2.36
2023-05-12T23:00:51.811Z,2.15
2023-05-12T23:03:18.176Z,2.21
2023-05-12T23:05:44.500Z,2.06
2023-05-12T23:08:11.021Z,1.87
2023-05-12T23:10:37.393Z,2.06
2023-05-12T23:13:03.770Z,1.82
2023-05-12T23:15:30.136Z,2.03
2023-05-12T23:17:56.536Z,2.00
2023-05-12T23:20:23.233Z,2.00
2023-05-12T23:22:49.847Z,2.15
2023-05-12T23:25:16.185Z,2.04
2023-05-12T23:27:42.553Z,2.14
2023-05-12T23:30:09.175Z,2.13
2023-05-12T23:32:35.782Z,1.98
2023-05-12T23:35:02.432Z,2.20
2023-05-12T23:37:28.793Z,2.04
2023-05-12T23:39:55.132Z,2.17
2023-05-12T23:42:21.458Z,2.01
2023-05-12T23:44:47.772Z,2.07
2023-05-12T23:47:14.110Z,2.10
2023-05-12T23:49:40.441Z,1.99
2023-05-12T23:52:06.833Z,2.08
2023-05-12T23:54:33.152Z,2.16
2023-05-12T23:56:59.568Z,2.18
2023-05-12T23:59:25.909Z,2.08
